TAF and METAR

Decoding for American and Canadian METARs and TAFs is not fully implemented.

Could not understand the following METAR

MRLB 311200Z 09003KT 9999 FEW035 BKN140 24/23 A2991

TAF for Daniel Oduber Quirós International Airport

MRLB 311100Z 3112/0112 28007KT 9999 SCT040 TX31/3119Z TN23/3111Z TEMPO 3120/3123 TSRA FEW020CB BKN030
Report created 31. mai 13:00

between 31. mai 14:00 - 1. mai 14:00

wind 7 knots from W (280°) visibility > 10km scattered clouds (~50% cover) at 4000 feet Max temperature 31° expected today at around 21 o'clock Min temperature 23° expected today at around 13 o'clock

temporarily between 31. mai 22:00 - 1. jun 01:00

thunderstorm and rain some clouds (~25% cover) at 2000 feet of type cumulonimbus broken clouds (~75% cover) at 3000 feet
Daniel Oduber Quirós International Airport in Costa Rica at 82m

Latest 5 airports